createdAt,value
2022-09-06T00:01:23.474Z,99608.00
2022-09-06T00:03:50.738Z,99604.31
2022-09-06T00:06:20.134Z,99609.03
2022-09-06T00:08:48.574Z,99598.75
2022-09-06T00:11:17.260Z,99607.59
2022-09-06T00:13:44.721Z,99603.28
2022-09-06T00:16:14.807Z,99604.50
2022-09-06T00:18:42.578Z,99601.00
2022-09-06T00:21:28.857Z,99606.53
2022-09-06T00:23:55.616Z,99606.16
2022-09-06T00:26:23.494Z,99603.53
2022-09-06T00:28:50.364Z,99605.00
2022-09-06T00:31:20.285Z,99598.63
2022-09-06T00:33:47.373Z,99598.44
2022-09-06T00:36:14.317Z,99602.56
2022-09-06T00:38:42.001Z,99600.56
2022-09-06T00:41:10.584Z,99607.31
2022-09-06T00:43:38.192Z,99604.25
2022-09-06T00:46:07.401Z,99604.69
2022-09-06T00:48:36.656Z,99604.84
2022-09-06T00:51:08.384Z,99603.59
2022-09-06T00:53:35.157Z,99601.53
2022-09-06T00:56:02.257Z,99597.13
2022-09-06T00:58:29.261Z,99593.34
2022-09-06T01:00:56.059Z,99590.31
2022-09-06T01:03:25.558Z,99594.59
2022-09-06T01:06:17.271Z,99597.00
2022-09-06T01:09:06.813Z,99591.19
2022-09-06T01:11:51.771Z,99584.75
2022-09-06T01:14:36.910Z,99583.84
2022-09-06T01:17:43.690Z,99589.13
2022-09-06T01:20:28.805Z,99588.50
2022-09-06T01:23:22.496Z,99580.22
2022-09-06T01:25:54.891Z,99585.38
2022-09-06T01:28:33.336Z,99572.59
2022-09-06T01:31:24.942Z,99581.69
2022-09-06T01:34:11.735Z,99575.66
2022-09-06T01:37:08.880Z,99569.69
2022-09-06T01:39:37.167Z,99574.97
2022-09-06T01:42:14.693Z,99580.75
2022-09-06T01:44:45.893Z,99580.25
2022-09-06T01:47:22.037Z,99577.75
2022-09-06T01:50:07.311Z,99578.78
2022-09-06T01:52:50.463Z,99583.03
2022-09-06T01:55:30.967Z,99575.66
2022-09-06T01:58:24.163Z,99579.88
2022-09-06T02:01:03.289Z,99581.88
2022-09-06T02:03:41.709Z,99582.97
2022-09-06T02:06:20.309Z,99581.06
2022-09-06T02:08:57.185Z,99579.22
2022-09-06T02:11:26.633Z,99582.66
2022-09-06T02:14:03.074Z,99578.31
2022-09-06T02:16:32.800Z,99579.91
2022-09-06T02:19:07.055Z,99577.53
2022-09-06T02:21:40.338Z,99571.56
2022-09-06T02:24:12.064Z,99565.47
2022-09-06T02:26:43.617Z,99566.97
2022-09-06T02:29:10.723Z,99563.66
2022-09-06T02:31:52.969Z,99561.94
2022-09-06T02:34:20.872Z,99563.09
2022-09-06T02:36:48.331Z,99567.00
2022-09-06T02:39:15.259Z,99568.56
2022-09-06T02:41:45.366Z,99568.09
2022-09-06T02:44:12.111Z,99566.38
2022-09-06T02:46:38.784Z,99564.16
2022-09-06T02:49:05.515Z,99563.69
2022-09-06T02:51:39.633Z,99568.75
2022-09-06T02:54:07.120Z,99569.38
2022-09-06T02:56:36.473Z,99563.91
2022-09-06T02:59:07.190Z,99559.00
2022-09-06T03:01:34.484Z,99563.31
2022-09-06T03:04:01.935Z,99560.75
2022-09-06T03:06:28.771Z,99564.78
2022-09-06T03:08:55.651Z,99560.56
2022-09-06T03:11:22.567Z,99554.22
2022-09-06T03:13:51.135Z,99554.41
2022-09-06T03:16:18.366Z,99553.56
2022-09-06T03:18:45.235Z,99557.59
2022-09-06T03:21:12.120Z,99561.66
2022-09-06T03:23:41.717Z,99564.88
2022-09-06T03:26:08.591Z,99572.34
2022-09-06T03:28:35.334Z,99576.41
2022-09-06T03:31:02.073Z,99573.06
2022-09-06T03:33:28.972Z,99576.16
2022-09-06T03:36:01.519Z,99579.78
2022-09-06T03:38:29.450Z,99583.47
2022-09-06T03:40:56.481Z,99576.78
2022-09-06T03:43:24.742Z,99572.34
2022-09-06T03:45:54.345Z,99577.13
2022-09-06T03:48:23.014Z,99571.16
2022-09-06T03:50:52.537Z,99568.94
2022-09-06T03:53:19.382Z,99572.81
2022-09-06T03:55:48.055Z,99571.03
2022-09-06T03:58:16.470Z,99571.16
2022-09-06T04:00:43.400Z,99568.38
2022-09-06T04:03:10.487Z,99566.34
2022-09-06T04:05:37.355Z,99564.66
2022-09-06T04:08:04.175Z,99556.66
2022-09-06T04:10:30.856Z,99561.63
2022-09-06T04:12:57.631Z,99557.72
2022-09-06T04:15:24.370Z,99558.53
2022-09-06T04:17:51.121Z,99564.22
2022-09-06T04:20:17.971Z,99561.56
2022-09-06T04:22:44.737Z,99575.47
2022-09-06T04:25:13.815Z,99565.63
2022-09-06T04:27:40.693Z,99565.81
2022-09-06T04:30:08.359Z,99568.47
2022-09-06T04:32:35.078Z,99569.69
2022-09-06T04:35:01.853Z,99566.81
2022-09-06T04:37:28.536Z,99570.13
2022-09-06T04:39:55.613Z,99570.78
2022-09-06T04:42:22.367Z,99565.56
2022-09-06T04:44:49.063Z,99574.19
2022-09-06T04:47:18.203Z,99568.72
2022-09-06T04:49:46.023Z,99572.22
2022-09-06T04:52:12.744Z,99570.38
2022-09-06T04:54:39.493Z,99575.31
2022-09-06T04:57:06.279Z,99568.00
2022-09-06T04:59:33.156Z,99570.44
2022-09-06T05:02:00.024Z,99559.78
2022-09-06T05:04:26.849Z,99578.44
2022-09-06T05:07:05.107Z,99570.72
2022-09-06T05:09:33.167Z,99570.06
2022-09-06T05:12:00.533Z,99573.38
2022-09-06T05:14:28.247Z,99571.72
2022-09-06T05:16:55.388Z,99566.13
2022-09-06T05:19:22.191Z,99575.22
2022-09-06T05:21:51.283Z,99570.19
2022-09-06T05:24:18.137Z,99585.88
2022-09-06T05:26:45.056Z,99566.75
2022-09-06T05:29:11.931Z,99575.53
2022-09-06T05:31:38.848Z,99581.06
2022-09-06T05:34:05.991Z,99576.94
2022-09-06T05:36:33.239Z,99575.00
2022-09-06T05:39:00.035Z,99570.69
2022-09-06T05:41:27.302Z,99569.34
2022-09-06T05:43:54.217Z,99583.06
2022-09-06T05:46:21.541Z,99577.53
2022-09-06T05:49:04.731Z,99583.97
2022-09-06T05:51:32.790Z,99586.09
2022-09-06T05:53:59.734Z,99579.66
2022-09-06T05:56:26.394Z,99571.59
2022-09-06T05:58:53.085Z,99570.84
2022-09-06T06:01:28.028Z,99578.03
2022-09-06T06:03:57.004Z,99583.31
2022-09-06T06:06:25.511Z,99587.09
2022-09-06T06:08:52.209Z,99582.00
2022-09-06T06:11:19.465Z,99573.56
2022-09-06T06:13:46.240Z,99584.09
2022-09-06T06:16:15.508Z,99589.75
2022-09-06T06:18:42.655Z,99593.41
2022-09-06T06:21:09.355Z,99588.34
2022-09-06T06:23:36.220Z,99592.41
2022-09-06T06:26:02.993Z,99584.19
2022-09-06T06:28:29.754Z,99583.69
2022-09-06T06:30:56.661Z,99575.03
2022-09-06T06:33:23.363Z,99571.34
2022-09-06T06:36:03.949Z,99567.97
2022-09-06T06:38:35.763Z,99571.56
2022-09-06T06:41:06.662Z,99562.75
2022-09-06T06:43:37.880Z,99569.31
2022-09-06T06:46:13.359Z,99562.31
2022-09-06T06:48:41.437Z,99560.28
2022-09-06T06:51:13.036Z,99554.97
2022-09-06T06:53:39.996Z,99559.50
2022-09-06T06:56:29.391Z,99555.56
2022-09-06T06:58:58.106Z,99554.63
2022-09-06T07:01:26.469Z,99568.41
2022-09-06T07:03:54.417Z,99569.09
2022-09-06T07:09:09.513Z,99565.38
2022-09-06T07:11:36.219Z,99568.44
2022-09-06T07:14:02.978Z,99579.81
2022-09-06T07:16:30.029Z,99575.66
2022-09-06T07:18:56.879Z,99574.63
2022-09-06T07:21:42.226Z,99579.75
2022-09-06T07:24:09.734Z,99570.88
2022-09-06T07:26:38.915Z,99567.56
2022-09-06T07:29:07.195Z,99570.25
2022-09-06T07:34:22.004Z,99574.34
2022-09-06T07:36:48.753Z,99571.84
2022-09-06T07:39:15.534Z,99573.06
2022-09-06T07:41:43.023Z,99575.94
2022-09-06T07:44:09.907Z,99580.84
2022-09-06T07:46:36.726Z,99580.63
2022-09-06T07:49:06.732Z,99578.06
2022-09-06T07:51:33.652Z,99573.06
2022-09-06T07:54:34.677Z,99577.63
2022-09-06T07:56:47.563Z,99576.72
2022-09-06T07:59:14.807Z,99575.41
2022-09-06T08:01:42.024Z,99568.50
2022-09-06T08:04:12.715Z,99568.59
2022-09-06T08:09:32.876Z,99564.91
2022-09-06T08:11:59.763Z,99553.81
2022-09-06T08:14:26.483Z,99551.81
2022-09-06T08:16:53.195Z,99562.88
2022-09-06T08:19:19.872Z,99565.09
2022-09-06T08:21:46.593Z,99561.38
2022-09-06T08:24:13.474Z,99561.09
2022-09-06T08:26:43.214Z,99559.50
2022-09-06T08:29:11.574Z,99565.28
2022-09-06T08:31:40.984Z,99565.13
2022-09-06T08:34:08.259Z,99556.63
2022-09-06T08:36:35.968Z,99557.19
2022-09-06T08:39:09.192Z,99554.22
2022-09-06T08:41:57.328Z,99545.91
2022-09-06T08:47:22.377Z,99544.84
2022-09-06T08:49:54.760Z,99539.69
2022-09-06T08:52:29.085Z,99541.25
2022-09-06T08:55:20.553Z,99530.66
2022-09-06T08:58:08.709Z,99529.94
2022-09-06T09:00:37.127Z,99527.22
2022-09-06T09:03:16.463Z,99533.69
2022-09-06T09:05:48.147Z,99535.09
2022-09-06T09:08:29.343Z,99527.38
2022-09-06T09:11:07.584Z,99534.03
2022-09-06T09:13:40.806Z,99534.53
2022-09-06T09:16:07.780Z,99528.25
2022-09-06T09:18:38.598Z,99528.09
2022-09-06T09:21:05.674Z,99524.81
2022-09-06T09:23:32.772Z,99519.66
2022-09-06T09:26:04.886Z,99508.50
2022-09-06T09:28:31.976Z,99508.84
2022-09-06T09:30:58.963Z,99512.72
2022-09-06T09:33:36.755Z,99515.47
2022-09-06T09:36:09.190Z,99504.63
2022-09-06T09:38:49.237Z,99507.84
2022-09-06T09:41:33.687Z,99506.69
2022-09-06T09:44:07.482Z,99497.16
2022-09-06T09:46:36.467Z,99493.13
2022-09-06T09:49:07.754Z,99487.47
2022-09-06T09:51:46.609Z,99485.53
2022-09-06T09:54:35.017Z,99476.00
2022-09-06T09:57:03.007Z,99482.00
2022-09-06T09:59:44.402Z,99473.03
2022-09-06T10:02:41.556Z,99475.25
2022-09-06T10:05:20.168Z,99467.75
2022-09-06T10:07:52.829Z,99462.25
2022-09-06T10:10:25.349Z,99464.53
2022-09-06T10:13:26.609Z,99460.94
2022-09-06T10:15:54.541Z,99459.34
2022-09-06T10:18:21.154Z,99463.91
2022-09-06T10:20:56.728Z,99468.94
2022-09-06T10:26:45.986Z,99464.47
2022-09-06T10:29:14.334Z,99460.63
2022-09-06T10:32:19.259Z,99454.69
2022-09-06T10:34:54.171Z,99451.00
2022-09-06T10:37:28.923Z,99444.47
2022-09-06T10:40:02.806Z,99436.34
2022-09-06T10:42:42.440Z,99444.53
2022-09-06T10:45:27.809Z,99441.94
2022-09-06T10:48:01.579Z,99436.97
2022-09-06T10:50:56.087Z,99436.69
2022-09-06T10:53:46.503Z,99431.00
2022-09-06T10:56:20.994Z,99430.22
2022-09-06T11:02:18.465Z,99423.03
2022-09-06T11:10:45.367Z,99416.31
2022-09-06T11:13:22.982Z,99422.81
2022-09-06T11:16:01.574Z,99419.13
2022-09-06T11:18:41.699Z,99422.69
2022-09-06T11:21:30.777Z,99422.88
2022-09-06T11:24:37.078Z,99416.09
2022-09-06T11:27:25.190Z,99410.63
2022-09-06T11:29:56.308Z,99400.09
2022-09-06T11:32:44.788Z,99402.84
2022-09-06T11:35:24.053Z,99395.63
2022-09-06T11:38:01.760Z,99393.75
2022-09-06T11:40:36.527Z,99397.44
2022-09-06T11:43:03.753Z,99389.88
2022-09-06T11:45:42.477Z,99385.34
2022-09-06T11:48:24.132Z,99370.63
2022-09-06T11:51:11.299Z,99377.16
2022-09-06T11:53:50.188Z,99372.47
2022-09-06T11:56:51.419Z,99371.69
2022-09-06T11:59:21.580Z,99384.88
2022-09-06T12:02:07.915Z,99378.06
2022-09-06T12:05:07.204Z,99370.31
2022-09-06T12:07:36.450Z,99371.91
2022-09-06T12:10:29.119Z,99357.56
2022-09-06T12:12:56.341Z,99357.00
2022-09-06T12:15:28.217Z,99356.22
2022-09-06T12:17:55.852Z,99355.94
2022-09-06T12:20:54.293Z,99355.56
2022-09-06T12:23:36.225Z,99343.09
2022-09-06T12:26:06.883Z,99341.44
2022-09-06T12:28:35.903Z,99342.88
2022-09-06T12:31:42.276Z,99342.47
2022-09-06T12:34:21.235Z,99334.81
2022-09-06T12:37:01.352Z,99329.50
2022-09-06T12:39:28.300Z,99328.81
2022-09-06T12:42:07.348Z,99325.63
2022-09-06T12:44:42.920Z,99327.41
2022-09-06T12:47:20.469Z,99337.97
2022-09-06T12:49:47.301Z,99341.66
2022-09-06T12:52:16.443Z,99329.69
2022-09-06T12:54:46.248Z,99333.59
2022-09-06T12:57:33.189Z,99318.59
2022-09-06T12:59:59.912Z,99323.78
2022-09-06T13:02:43.506Z,99316.44
2022-09-06T13:05:13.216Z,99312.38
2022-09-06T13:07:45.193Z,99310.22
2022-09-06T13:10:17.309Z,99305.81
2022-09-06T13:12:46.722Z,99303.09
2022-09-06T13:15:13.445Z,99303.56
2022-09-06T13:17:40.363Z,99298.09
2022-09-06T13:20:15.916Z,99302.84
2022-09-06T13:22:45.504Z,99294.97
2022-09-06T13:25:21.245Z,99296.78
2022-09-06T13:27:50.970Z,99298.19
2022-09-06T13:30:36.226Z,99296.34
2022-09-06T13:33:06.004Z,99296.88
2022-09-06T13:35:36.061Z,99301.13
2022-09-06T13:38:21.224Z,99310.03
2022-09-06T13:41:11.488Z,99287.28
2022-09-06T13:43:44.951Z,99300.84
2022-09-06T13:46:12.008Z,99304.72
2022-09-06T13:48:44.263Z,99298.25
2022-09-06T13:51:11.661Z,99294.16
2022-09-06T13:53:38.447Z,99304.22
2022-09-06T13:56:08.583Z,99298.22
2022-09-06T13:58:36.362Z,99295.72
2022-09-06T14:01:05.077Z,99306.25
2022-09-06T14:03:32.831Z,99301.47
2022-09-06T14:06:00.354Z,99299.03
2022-09-06T14:08:38.845Z,99288.28
2022-09-06T14:11:15.048Z,99292.00
2022-09-06T14:13:41.851Z,99292.00
2022-09-06T14:16:08.760Z,99289.56
2022-09-06T14:18:36.253Z,99288.41
2022-09-06T14:21:02.983Z,99287.53
2022-09-06T14:23:29.656Z,99293.53
2022-09-06T14:25:58.386Z,99290.03
2022-09-06T14:28:25.762Z,99282.78
2022-09-06T14:30:53.155Z,99286.84
2022-09-06T14:33:21.488Z,99287.50
2022-09-06T14:35:48.967Z,99288.03
2022-09-06T14:38:15.999Z,99282.94
2022-09-06T14:40:44.288Z,99291.28
2022-09-06T14:43:11.119Z,99285.50
2022-09-06T14:45:37.854Z,99287.53
2022-09-06T14:48:04.711Z,99289.00
2022-09-06T14:50:31.464Z,99293.56
2022-09-06T14:52:58.619Z,99293.41
2022-09-06T14:55:25.432Z,99292.72
2022-09-06T14:57:52.380Z,99294.59
2022-09-06T15:00:19.332Z,99293.44
2022-09-06T15:02:46.080Z,99286.59
2022-09-06T15:05:12.788Z,99290.13
2022-09-06T15:07:39.472Z,99291.22
2022-09-06T15:10:06.358Z,99286.94
2022-09-06T15:12:33.233Z,99287.03
2022-09-06T15:15:00.038Z,99293.44
2022-09-06T15:17:26.751Z,99297.19
2022-09-06T15:19:54.323Z,99298.88
2022-09-06T15:22:21.035Z,99303.91
2022-09-06T15:24:47.653Z,99308.72
2022-09-06T15:27:14.332Z,99304.06
2022-09-06T15:29:42.118Z,99310.78
2022-09-06T15:32:08.875Z,99306.53
2022-09-06T15:34:35.719Z,99304.88
2022-09-06T15:37:02.462Z,99311.16
2022-09-06T15:39:29.184Z,99323.66
2022-09-06T15:41:57.113Z,99318.25
2022-09-06T15:44:23.859Z,99320.34
2022-09-06T15:46:53.958Z,99314.53
2022-09-06T15:49:28.285Z,99321.59
2022-09-06T15:52:01.032Z,99318.66
2022-09-06T15:54:47.741Z,99322.28
2022-09-06T15:57:16.513Z,99320.22
2022-09-06T15:59:44.044Z,99321.34
2022-09-06T16:02:11.445Z,99325.69
2022-09-06T16:04:38.412Z,99326.22
2022-09-06T16:07:05.794Z,99326.56
2022-09-06T16:09:32.543Z,99330.47
2022-09-06T16:11:59.415Z,99327.44
2022-09-06T16:14:28.107Z,99331.19
2022-09-06T16:16:54.963Z,99322.75
2022-09-06T16:19:21.757Z,99323.50
2022-09-06T16:21:49.182Z,99328.31
2022-09-06T16:24:18.235Z,99320.25
2022-09-06T16:26:46.620Z,99317.13
2022-09-06T16:29:16.293Z,99324.81
2022-09-06T16:31:43.095Z,99318.19
2022-09-06T16:34:11.626Z,99330.53
2022-09-06T16:36:38.566Z,99325.53
2022-09-06T16:39:06.502Z,99321.25
2022-09-06T16:41:42.546Z,99322.47
2022-09-06T16:44:16.635Z,99321.66
2022-09-06T16:46:45.876Z,99319.38
2022-09-06T16:49:12.871Z,99317.41
2022-09-06T16:51:39.626Z,99317.28
2022-09-06T16:54:06.845Z,99325.66
2022-09-06T16:56:35.831Z,99323.66
2022-09-06T16:59:06.379Z,99329.59
2022-09-06T17:01:35.113Z,99330.06
2022-09-06T17:04:02.307Z,99340.44
2022-09-06T17:06:29.875Z,99334.50
2022-09-06T17:09:00.549Z,99340.13
2022-09-06T17:11:29.480Z,99344.91
2022-09-06T17:13:56.949Z,99341.75
2022-09-06T17:16:43.134Z,99342.59
2022-09-06T17:19:10.618Z,99346.47
2022-09-06T17:21:39.088Z,99350.16
2022-09-06T17:24:07.103Z,99344.00
2022-09-06T17:26:36.151Z,99347.94
2022-09-06T17:29:03.756Z,99349.06
2022-09-06T17:31:30.627Z,99350.09
2022-09-06T17:33:58.467Z,99352.03
2022-09-06T17:36:30.976Z,99351.69
2022-09-06T17:39:10.258Z,99360.34
2022-09-06T17:41:43.089Z,99358.16
2022-09-06T17:44:11.328Z,99354.91
2022-09-06T17:46:47.694Z,99363.25
2022-09-06T17:49:24.595Z,99366.38
2022-09-06T17:51:52.115Z,99372.16
2022-09-06T17:54:19.374Z,99362.72
2022-09-06T17:56:46.196Z,99362.72
2022-09-06T17:59:14.144Z,99360.53
2022-09-06T18:01:42.643Z,99357.03
2022-09-06T18:04:10.611Z,99358.75
2022-09-06T18:06:40.854Z,99366.91
2022-09-06T18:09:10.514Z,99364.69
2022-09-06T18:11:39.769Z,99377.56
2022-09-06T18:14:12.476Z,99382.69
2022-09-06T18:16:40.375Z,99383.97
2022-09-06T18:19:08.995Z,99387.47
2022-09-06T18:21:38.973Z,99382.47
2022-09-06T18:24:06.096Z,99389.09
2022-09-06T18:26:33.156Z,99399.84
2022-09-06T18:29:00.518Z,99402.53
2022-09-06T18:31:28.012Z,99414.50
2022-09-06T18:33:59.858Z,99411.19
2022-09-06T18:36:31.772Z,99414.28
2022-09-06T18:39:02.810Z,99408.94
2022-09-06T18:41:48.359Z,99409.38
2022-09-06T18:44:15.687Z,99415.34
2022-09-06T18:46:42.701Z,99406.88
2022-09-06T18:49:09.529Z,99404.03
2022-09-06T18:51:39.542Z,99415.59
2022-09-06T18:54:06.971Z,99414.78
2022-09-06T18:56:33.774Z,99409.59
2022-09-06T18:59:02.169Z,99405.47
2022-09-06T19:01:30.240Z,99409.41
2022-09-06T19:03:58.653Z,99404.03
2022-09-06T19:06:27.265Z,99403.44
2022-09-06T19:08:55.140Z,99404.03
2022-09-06T19:11:22.415Z,99398.69
2022-09-06T19:13:53.737Z,99398.06
2022-09-06T19:16:21.458Z,99397.47
2022-09-06T19:18:48.602Z,99402.41
2022-09-06T19:21:17.882Z,99397.03
2022-09-06T19:23:55.360Z,99391.91
2022-09-06T19:26:22.850Z,99406.56
2022-09-06T19:28:52.615Z,99400.75
2022-09-06T19:31:19.872Z,99408.19
2022-09-06T19:33:48.026Z,99397.47
2022-09-06T19:36:15.833Z,99402.63
2022-09-06T19:39:01.840Z,99401.19
2022-09-06T19:41:30.685Z,99396.22
2022-09-06T19:43:58.407Z,99400.16
2022-09-06T19:46:26.797Z,99404.47
2022-09-06T19:48:55.866Z,99403.03
2022-09-06T19:51:23.170Z,99406.53
2022-09-06T19:53:57.407Z,99410.44
2022-09-06T19:56:26.555Z,99416.44
2022-09-06T19:58:55.568Z,99413.53
2022-09-06T20:01:23.373Z,99416.00
2022-09-06T20:03:50.201Z,99412.28
2022-09-06T20:06:16.979Z,99410.22
2022-09-06T20:08:44.125Z,99407.25
2022-09-06T20:11:12.734Z,99411.00
2022-09-06T20:13:40.301Z,99401.56
2022-09-06T20:16:08.909Z,99399.44
2022-09-06T20:18:36.068Z,99398.56
2022-09-06T20:21:02.890Z,99402.03
2022-09-06T20:23:31.315Z,99401.81
2022-09-06T20:26:00.691Z,99400.81
2022-09-06T20:28:28.748Z,99398.69
2022-09-06T20:31:04.833Z,99401.16
2022-09-06T20:33:32.359Z,99398.66
2022-09-06T20:36:03.911Z,99402.50
2022-09-06T20:38:31.865Z,99400.03
2022-09-06T20:41:04.775Z,99399.38
2022-09-06T20:43:34.436Z,99393.59
2022-09-06T20:46:04.239Z,99393.09
2022-09-06T20:48:34.843Z,99387.69
2022-09-06T20:51:06.866Z,99381.72
2022-09-06T20:53:35.325Z,99380.72
2022-09-06T20:56:06.919Z,99383.22
2022-09-06T20:58:33.681Z,99385.44
2022-09-06T21:01:06.480Z,99384.81
2022-09-06T21:03:37.559Z,99393.56
2022-09-06T21:06:05.785Z,99401.56
2022-09-06T21:08:35.477Z,99407.16
2022-09-06T21:11:06.660Z,99409.09
2022-09-06T21:13:34.443Z,99404.19
2022-09-06T21:16:01.827Z,99401.31
2022-09-06T21:18:29.809Z,99408.91
2022-09-06T21:21:02.216Z,99394.38
2022-09-06T21:23:30.855Z,99395.53
2022-09-06T21:26:03.057Z,99395.19
2022-09-06T21:28:32.482Z,99386.75
2022-09-06T21:31:01.771Z,99387.75
2022-09-06T21:33:33.176Z,99386.00
2022-09-06T21:36:11.549Z,99386.66
2022-09-06T21:38:42.300Z,99385.69
2022-09-06T21:41:10.375Z,99395.34
2022-09-06T21:43:37.228Z,99391.63
2022-09-06T21:46:15.294Z,99391.53
2022-09-06T21:48:44.671Z,99393.91
2022-09-06T21:51:16.377Z,99389.19
2022-09-06T21:53:44.981Z,99388.41
2022-09-06T21:56:12.539Z,99391.44
2022-09-06T21:58:40.038Z,99379.78
2022-09-06T22:01:07.733Z,99386.25
2022-09-06T22:03:40.305Z,99389.16
2022-09-06T22:06:22.305Z,99378.22
2022-09-06T22:08:49.289Z,99382.69
2022-09-06T22:11:18.936Z,99373.16
2022-09-06T22:13:46.620Z,99373.53
2022-09-06T22:16:15.162Z,99379.13
2022-09-06T22:18:42.249Z,99381.84
2022-09-06T22:21:11.423Z,99375.69
2022-09-06T22:23:39.035Z,99377.06
2022-09-06T22:26:10.860Z,99378.09
2022-09-06T22:28:38.006Z,99380.16
2022-09-06T22:31:05.370Z,99373.97
2022-09-06T22:33:32.165Z,99369.47
2022-09-06T22:36:01.816Z,99363.94
2022-09-06T22:38:29.933Z,99371.25
2022-09-06T22:40:57.567Z,99371.03
2022-09-06T22:43:24.885Z,99374.53
2022-09-06T22:45:52.241Z,99372.00
2022-09-06T22:48:19.312Z,99376.44
2022-09-06T22:50:46.421Z,99375.88
2022-09-06T22:53:13.195Z,99374.31
2022-09-06T22:55:39.867Z,99366.16
2022-09-06T22:58:06.679Z,99371.75
2022-09-06T23:00:36.092Z,99375.94
2022-09-06T23:03:03.040Z,99366.91
2022-09-06T23:05:31.395Z,99366.41
2022-09-06T23:08:00.240Z,99356.38
2022-09-06T23:10:30.047Z,99356.94
2022-09-06T23:12:58.215Z,99354.28
2022-09-06T23:15:26.051Z,99349.75
2022-09-06T23:17:52.758Z,99342.63
2022-09-06T23:20:19.529Z,99345.38
2022-09-06T23:22:47.352Z,99351.59
2022-09-06T23:25:14.093Z,99347.31
2022-09-06T23:27:40.753Z,99342.81
2022-09-06T23:30:08.280Z,99334.75
2022-09-06T23:32:35.672Z,99330.88
2022-09-06T23:35:02.373Z,99326.38
2022-09-06T23:37:29.076Z,99327.63
2022-09-06T23:39:55.798Z,99324.00
2022-09-06T23:42:23.032Z,99328.31
2022-09-06T23:44:51.222Z,99320.78
2022-09-06T23:47:17.909Z,99320.78
2022-09-06T23:49:45.436Z,99326.06
2022-09-06T23:52:12.316Z,99326.25
2022-09-06T23:54:38.992Z,99319.38
2022-09-06T23:57:05.669Z,99321.06
2022-09-06T23:59:32.458Z,99325.09
